Time;durP1;ratioP1;P1;durP2;ratioP2;P2;SDS_P1;SDS_P2;PMS_P1;PMS_P2;Temp;Humidity;BMP_temperature;BMP_pressure;BME280_temperature;BME280_humidity;BME280_pressure;Samples;Min_cycle;Max_cycle;Signal;HPM_P1;HPM_P2
2022/04/09 05:02:10;;;;;;;24.17;11.90;;;2.00;99.90;;;;;;6173695;23;20028;-81
2022/04/09 05:04:38;;;;;;;25.98;13.18;;;2.00;99.90;;;;;;6193736;23;20005;-80
2022/04/09 05:11:03;;;;;;;28.48;12.88;;;2.00;99.90;;;;;;6097269;23;20016;-81
2022/04/09 05:14:05;;;;;;;;;;;;;;;;;;;;;
2022/04/09 05:16:40;;;;;;;20.73;12.80;;;2.10;99.90;;;;;;6195733;23;20024;-81
2022/04/09 05:19:07;;;;;;;21.42;11.73;;;2.10;99.90;;;;;;6196360;23;20016;-81
2022/04/09 05:21:34;;;;;;;20.55;10.57;;;2.20;99.90;;;;;;6196019;23;20008;-81
2022/04/09 05:24:01;;;;;;;21.25;12.10;;;2.10;99.90;;;;;;6195695;23;20009;-80
2022/04/09 05:26:39;;;;;;;19.60;10.75;;;2.20;99.90;;;;;;6195206;23;20009;-80
2022/04/09 05:29:11;;;;;;;;;;;2.10;99.90;;;;;;6195905;23;20068;-80
2022/04/09 05:31:37;;;;;;;17.50;9.98;;;2.20;99.90;;;;;;6166707;23;19931;-79
2022/04/09 05:34:37;;;;;;;22.33;11.25;;;2.20;99.90;;;;;;6193642;23;20068;-82
2022/04/09 05:41:41;;;;;;;18.15;10.90;;;2.30;99.90;;;;;;6194809;23;20219;-81
2022/04/09 05:44:16;;;;;;;19.45;11.50;;;2.40;99.90;;;;;;6193751;23;20172;-80
2022/04/09 06:22:02;;;;;;;;;;;;;;;;;;;;;
2022/04/09 06:43:06;;;;;;;10.00;5.70;;;3.60;99.90;;;;;;6195108;23;20007;-80
2022/04/09 07:36:59;;;;;;;8.63;4.10;;;5.40;99.90;;;;;;6205729;22;20016;-78
2022/04/09 07:39:28;;;;;;;11.27;4.30;;;5.70;99.90;;;;;;6199024;23;20016;-78
2022/04/09 07:56:46;;;;;;;9.98;3.70;;;6.50;99.90;;;;;;6171155;23;20019;-77
2022/04/09 07:59:12;;;;;;;8.27;3.20;;;6.50;99.90;;;;;;6198901;23;20024;-77
2022/04/09 08:01:38;;;;;;;8.20;3.50;;;6.60;99.90;;;;;;6197223;23;20020;-78
2022/04/09 08:04:04;;;;;;;6.50;2.80;;;6.60;99.90;;;;;;6199600;23;20005;-78
2022/04/09 08:06:30;;;;;;;6.35;3.45;;;6.70;99.90;;;;;;6198904;23;20001;-78
2022/04/09 08:09:23;;;;;;;6.95;3.08;;;6.70;99.90;;;;;;6224741;23;20186;-78
2022/04/09 08:11:49;;;;;;;7.65;3.78;;;7.00;99.90;;;;;;6199401;23;20186;-78
2022/04/09 08:14:52;;;;;;;8.75;3.20;;;6.80;99.90;;;;;;6224039;23;20042;-81
2022/04/09 08:17:20;;;;;;;7.43;3.00;;;6.80;99.90;;;;;;6224778;23;20028;-79
2022/04/09 08:19:48;;;;;;;5.97;3.00;;;6.60;99.90;;;;;;6224807;23;20004;-81
2022/04/09 08:22:21;;;;;;;6.70;3.10;;;6.50;99.90;;;;;;6198994;23;20015;-82
2022/04/09 08:25:34;;;;;;;8.25;2.72;;;6.70;99.90;;;;;;6227180;23;20004;-80
2022/04/09 08:28:03;;;;;;;6.00;2.20;;;6.80;99.90;;;;;;6227454;23;20020;-79
2022/04/09 08:30:36;;;;;;;7.47;2.60;;;6.80;99.90;;;;;;6200174;23;20012;-79
2022/04/09 08:33:07;;;;;;;11.20;2.60;;;6.70;99.90;;;;;;6225549;23;20028;-79
2022/04/09 08:35:33;;;;;;;6.93;2.88;;;6.80;99.90;;;;;;6198758;23;20171;-82
2022/04/09 08:38:03;;;;;;;8.27;2.80;;;6.80;99.90;;;;;;6199647;23;20016;-79
2022/04/09 08:40:48;;;;;;;9.93;3.17;;;6.80;99.90;;;;;;6224599;23;20020;-80
2022/04/09 08:46:40;;;;;;;7.15;2.40;;;7.00;99.90;;;;;;6224517;23;20297;-80
2022/04/09 08:49:07;;;;;;;6.93;2.75;;;7.00;99.90;;;;;;6199971;23;20009;-81
2022/04/09 08:51:33;;;;;;;8.02;3.08;;;7.00;99.90;;;;;;6223913;23;19997;-80
2022/04/09 08:54:29;;;;;;;8.05;2.78;;;6.90;99.90;;;;;;6199281;23;20004;-79
2022/04/09 08:56:58;;;;;;;10.13;3.10;;;7.10;99.90;;;;;;6226545;23;20008;-80
2022/04/09 08:59:54;;;;;;;6.88;2.70;;;7.20;99.90;;;;;;6176368;23;20039;-80
2022/04/09 09:02:27;;;;;;;7.63;3.13;;;7.30;99.70;;;;;;6225831;23;20202;-80
2022/04/09 09:04:53;;;;;;;7.05;3.25;;;7.20;99.30;;;;;;6225575;23;20000;-80
2022/04/09 09:07:26;;;;;;;10.20;3.17;;;7.30;99.80;;;;;;6224118;23;20024;-80
2022/04/09 09:09:52;;;;;;;4.95;2.60;;;7.50;99.10;;;;;;6224555;23;20008;-82
2022/04/09 09:12:32;;;;;;;7.35;2.55;;;7.80;98.40;;;;;;6199651;23;20043;-80
2022/04/09 09:15:03;;;;;;;8.68;2.63;;;7.70;98.30;;;;;;6200102;23;20004;-80
2022/04/09 09:17:30;;;;;;;5.72;2.53;;;7.50;97.70;;;;;;6135518;23;20205;-80
2022/04/09 09:19:56;;;;;;;7.13;3.67;;;7.50;99.00;;;;;;6224020;23;20004;-81
2022/04/09 09:22:35;;;;;;;5.55;2.83;;;7.80;98.30;;;;;;6198810;23;20009;-82
2022/04/09 09:25:07;;;;;;;8.38;2.55;;;7.80;97.90;;;;;;6223880;23;20004;-80
2022/04/09 09:27:56;;;;;;;9.07;2.97;;;7.80;98.70;;;;;;6223615;23;20015;-81
2022/04/09 09:30:50;;;;;;;8.90;2.50;;;7.80;97.70;;;;;;6187876;23;20055;-81
2022/04/09 09:33:21;;;;;;;8.45;2.53;;;7.70;96.50;;;;;;6200479;23;20198;-79
2022/04/09 09:36:04;;;;;;;7.30;2.40;;;7.50;97.30;;;;;;6223874;23;20007;-80
2022/04/09 09:39:05;;;;;;;8.43;2.35;;;7.60;97.10;;;;;;6198940;23;20000;-79
2022/04/09 09:41:58;;;;;;;8.35;2.20;;;7.70;96.40;;;;;;6198220;23;20676;-80
2022/04/09 09:44:32;;;;;;;6.53;2.50;;;8.10;95.60;;;;;;6223506;23;20000;-81
2022/04/09 09:47:08;;;;;;;5.85;2.00;;;8.30;95.60;;;;;;6199274;23;20008;-80
2022/04/09 09:49:59;;;;;;;6.78;2.20;;;8.90;95.00;;;;;;6225671;23;20001;-80
2022/04/09 09:52:25;;;;;;;7.15;2.47;;;8.60;93.90;;;;;;6198867;23;20066;-81
2022/04/09 09:55:24;;;;;;;7.10;2.15;;;9.00;94.50;;;;;;6223790;23;20000;-78
2022/04/09 09:57:52;;;;;;;7.57;1.77;;;9.10;94.00;;;;;;6197955;23;20012;-80
2022/04/09 10:00:18;;;;;;;8.57;2.25;;;9.50;94.60;;;;;;6223074;22;20237;-79
2022/04/09 10:02:45;;;;;;;5.72;2.30;;;9.50;93.60;;;;;;6223486;23;20005;-80
2022/04/09 10:05:38;;;;;;;6.13;1.98;;;9.50;93.70;;;;;;6223660;23;20279;-77
2022/04/09 10:08:05;;;;;;;5.55;1.90;;;10.00;93.30;;;;;;6224806;23;20000;-78
2022/04/09 10:10:36;;;;;;;7.45;2.30;;;10.00;94.40;;;;;;6223803;23;20005;-78
2022/04/09 10:13:04;;;;;;;5.40;1.90;;;10.40;92.30;;;;;;6226733;23;20013;-83
2022/04/09 10:15:31;;;;;;;7.28;1.90;;;10.30;91.70;;;;;;6223274;23;20221;-80
2022/04/09 10:18:25;;;;;;;7.78;1.90;;;10.10;91.10;;;;;;6199871;23;20012;-80
2022/04/09 10:20:54;;;;;;;7.45;2.10;;;10.10;90.80;;;;;;6224373;23;20008;-80
2022/04/09 10:23:22;;;;;;;5.85;1.58;;;9.50;91.50;;;;;;6224358;23;20061;-80
2022/04/09 10:25:58;;;;;;;5.22;1.90;;;9.40;92.10;;;;;;6198004;23;20004;-82
2022/04/09 10:28:33;;;;;;;4.88;1.65;;;9.30;91.90;;;;;;6223507;23;20004;-81
2022/04/09 10:31:22;;;;;;;6.72;1.83;;;9.00;93.00;;;;;;6197225;23;20020;-80
2022/04/09 10:33:55;;;;;;;5.97;2.10;;;8.50;92.90;;;;;;6221863;23;20058;-80
2022/04/09 10:36:40;;;;;;;5.70;1.60;;;8.70;91.70;;;;;;6225416;23;20004;-82
2022/04/09 10:39:40;;;;;;;6.20;1.40;;;9.20;91.80;;;;;;6226625;23;20005;-82
2022/04/09 10:42:30;;;;;;;7.88;1.90;;;9.90;90.50;;;;;;6226354;23;20300;-82
2022/04/09 12:31:41;;;;;;;4.88;1.40;;;17.00;67.00;;;;;;6144235;23;19920;-78
2022/04/09 12:43:00;;;;;;;5.68;1.20;;;16.70;64.50;;;;;;6195546;23;20097;-81
2022/04/09 13:05:45;;;;;;;5.40;1.48;;;18.70;60.00;;;;;;6067111;23;20070;-79
2022/04/09 13:08:11;;;;;;;4.43;1.58;;;18.10;60.00;;;;;;6055033;23;20006;-79
2022/04/09 13:10:45;;;;;;;7.60;1.42;;;17.80;59.50;;;;;;6079202;23;20034;-79
2022/04/09 13:13:11;;;;;;;4.10;1.13;;;18.30;58.10;;;;;;6070944;23;20026;-79
2022/04/09 13:15:37;;;;;;;3.35;1.23;;;18.70;57.30;;;;;;6045088;23;20007;-83
2022/04/09 13:18:05;;;;;;;5.03;1.25;;;19.60;56.60;;;;;;6023855;23;20011;-81
2022/04/09 13:20:41;;;;;;;;;;;21.00;56.30;;;;;;6046910;23;20018;-84
2022/04/09 13:23:22;;;;;;;;;;;22.40;54.50;;;;;;6046723;23;19926;-82
2022/04/09 13:29:01;;;;;;;5.22;1.63;;;23.70;52.50;;;;;;5988620;23;20071;-80
2022/04/09 13:31:31;;;;;;;4.18;1.60;;;23.50;51.80;;;;;;6012751;23;20313;-81
2022/04/09 13:38:10;;;;;;;3.97;1.40;;;22.00;50.70;;;;;;6074629;23;20007;-81
2022/04/09 13:40:39;;;;;;;5.35;1.35;;;19.50;54.30;;;;;;6050542;23;20003;-81
2022/04/09 13:43:05;;;;;;;4.22;1.35;;;17.90;56.50;;;;;;6078032;23;20026;-81
2022/04/09 13:45:31;;;;;;;4.50;1.30;;;16.40;56.80;;;;;;6111653;23;20021;-82
2022/04/09 13:47:57;;;;;;;4.05;1.48;;;14.80;59.70;;;;;;6107332;23;20666;-79
2022/04/09 13:50:22;;;;;;;3.17;0.90;;;14.30;61.30;;;;;;6132154;23;20029;-80
2022/04/09 13:52:51;;;;;;;4.95;1.45;;;13.40;61.50;;;;;;6106428;23;20080;-81
2022/04/09 13:55:17;;;;;;;5.05;1.33;;;13.00;64.50;;;;;;6132470;23;20006;-82
2022/04/09 13:58:44;;;;;;;4.88;1.20;;;13.00;64.80;;;;;;6106658;23;19994;-83
2022/04/09 14:02:06;;;;;;;6.65;1.48;;;16.20;58.70;;;;;;6131178;23;20028;-81
2022/04/09 14:04:41;;;;;;;4.67;1.27;;;18.90;54.30;;;;;;6093630;23;20060;-83
2022/04/09 14:07:11;;;;;;;4.32;1.38;;;20.50;53.90;;;;;;6128888;23;20014;-81
2022/04/09 14:09:38;;;;;;;6.18;1.00;;;20.70;52.00;;;;;;6108261;23;20069;-81
2022/04/09 14:12:04;;;;;;;4.47;1.45;;;20.70;51.80;;;;;;6109081;23;20021;-83
2022/04/09 14:14:31;;;;;;;4.03;1.00;;;21.10;52.50;;;;;;6110467;23;20006;-80
2022/04/09 14:16:59;;;;;;;4.78;1.00;;;22.00;52.60;;;;;;6108672;23;20014;-81
2022/04/09 14:19:27;;;;;;;4.25;1.00;;;24.10;47.60;;;;;;6110539;23;20078;-85
2022/04/09 14:21:55;;;;;;;4.40;1.10;;;24.20;46.90;;;;;;6132926;23;20014;-81
2022/04/09 14:24:24;;;;;;;4.25;0.80;;;22.30;46.60;;;;;;6105787;23;20006;-82
2022/04/09 14:26:50;;;;;;;4.13;1.35;;;19.80;50.70;;;;;;6105029;23;20058;-81
2022/04/09 14:29:15;;;;;;;5.63;1.42;;;17.60;54.00;;;;;;6105522;23;20013;-81
2022/04/09 14:31:41;;;;;;;5.53;1.33;;;16.40;56.80;;;;;;6084573;23;20015;-82
2022/04/09 14:34:07;;;;;;;6.97;1.25;;;15.40;58.50;;;;;;6101032;23;20299;-80
2022/04/09 14:36:33;;;;;;;4.10;1.35;;;14.50;60.50;;;;;;6103976;23;20021;-78
2022/04/09 14:39:06;;;;;;;5.68;1.30;;;14.10;62.50;;;;;;6105025;23;20037;-79
2022/04/09 14:41:53;;;;;;;5.57;1.15;;;13.20;63.00;;;;;;6105722;23;20029;-79
2022/04/09 14:44:20;;;;;;;6.32;1.58;;;13.40;67.30;;;;;;6105643;23;20006;-81
2022/04/09 14:46:46;;;;;;;5.57;1.60;;;13.30;66.50;;;;;;6104200;23;20152;-81
2022/04/09 14:49:12;;;;;;;5.38;1.20;;;13.90;65.20;;;;;;6106082;23;20381;-80
2022/04/09 14:51:37;;;;;;;7.15;1.30;;;15.50;60.90;;;;;;6106570;23;20038;-80
2022/04/09 14:54:05;;;;;;;5.40;1.42;;;18.20;59.40;;;;;;6107345;23;20374;-80
2022/04/09 14:56:31;;;;;;;4.90;1.13;;;19.60;55.00;;;;;;6106567;23;20110;-82
2022/04/09 14:58:58;;;;;;;7.07;1.50;;;19.40;52.70;;;;;;6105171;23;20015;-82
2022/04/09 15:01:25;;;;;;;5.15;1.40;;;17.60;54.00;;;;;;6104250;23;20018;-83
2022/04/09 15:03:51;;;;;;;6.93;1.58;;;16.00;56.30;;;;;;6105403;23;20035;-82
2022/04/09 15:06:17;;;;;;;5.05;1.08;;;15.00;60.50;;;;;;6105202;23;20006;-79
2022/04/09 15:08:54;;;;;;;5.80;1.10;;;15.80;59.20;;;;;;6104300;23;20002;-81
2022/04/09 15:11:28;;;;;;;3.65;1.00;;;17.80;54.60;;;;;;6104760;23;20021;-80
2022/04/09 15:17:50;;;;;;;5.63;1.10;;;16.40;56.60;;;;;;6098769;23;20085;-83
2022/04/09 15:20:16;;;;;;;4.25;1.20;;;17.80;56.80;;;;;;6106103;23;20307;-87
2022/04/09 15:22:45;;;;;;;5.63;1.27;;;19.30;54.20;;;;;;6106253;23;19998;-84
2022/04/09 15:25:11;;;;;;;4.65;1.00;;;20.40;52.10;;;;;;6081856;23;20359;-85
2022/04/09 15:27:36;;;;;;;3.50;1.20;;;21.70;51.60;;;;;;6106150;23;20030;-83
2022/04/09 15:30:04;;;;;;;5.60;1.00;;;20.30;51.20;;;;;;6104195;23;20292;-83
2022/04/09 15:32:30;;;;;;;4.13;0.98;;;18.30;52.80;;;;;;6104543;23;20015;-82
2022/04/09 15:34:57;;;;;;;5.05;1.30;;;18.10;54.00;;;;;;6105169;23;20252;-81
2022/04/09 15:37:25;;;;;;;4.03;1.02;;;18.50;52.90;;;;;;6105784;23;20224;-82
2022/04/09 15:39:51;;;;;;;3.20;0.90;;;19.20;52.20;;;;;;6104115;23;20012;-82
2022/04/09 15:42:16;;;;;;;5.65;1.08;;;19.30;54.00;;;;;;6106776;23;20180;-81
2022/04/09 15:44:42;;;;;;;5.18;1.30;;;20.60;51.70;;;;;;6109250;23;20006;-82
2022/04/09 15:47:09;;;;;;;4.93;1.70;;;19.90;52.00;;;;;;6104450;23;20011;-81
2022/04/09 15:49:35;;;;;;;4.47;1.33;;;18.50;53.40;;;;;;6106112;23;20007;-80
2022/04/09 15:52:02;;;;;;;4.80;1.58;;;15.90;56.80;;;;;;6106144;23;20347;-80
2022/04/09 15:54:35;;;;;;;4.05;1.10;;;14.30;59.90;;;;;;6105569;23;20006;-80
2022/04/09 15:57:26;;;;;;;;;;;12.90;62.50;;;;;;6105610;23;20068;-81
2022/04/09 16:00:26;;;;;;;3.83;1.00;;;12.40;64.30;;;;;;6103451;23;19905;-81
2022/04/09 16:02:52;;;;;;;3.28;1.20;;;13.40;64.70;;;;;;6102464;23;20069;-81
2022/04/09 16:05:46;;;;;;;6.15;1.30;;;16.50;58.40;;;;;;6104941;23;20033;-83
2022/04/09 16:08:12;;;;;;;4.53;1.58;;;19.20;55.50;;;;;;6079383;23;20125;-80
2022/04/09 16:10:37;;;;;;;3.40;1.10;;;20.60;52.40;;;;;;6106070;23;20001;-80
2022/04/09 16:13:03;;;;;;;3.55;1.10;;;20.30;52.60;;;;;;6105901;23;20011;-80
2022/04/09 16:15:29;;;;;;;3.20;0.90;;;17.80;54.20;;;;;;6105941;23;20098;-80
2022/04/09 16:17:55;;;;;;;4.15;1.15;;;16.30;57.10;;;;;;6103870;23;20006;-82
2022/04/09 16:20:22;;;;;;;4.07;1.00;;;15.10;58.70;;;;;;6104880;23;20006;-80
2022/04/09 16:22:51;;;;;;;4.40;1.45;;;14.30;60.20;;;;;;6104269;23;19994;-81
2022/04/09 16:25:17;;;;;;;4.82;0.95;;;14.80;60.80;;;;;;6104750;23;20002;-82
2022/04/09 16:27:43;;;;;;;5.63;1.00;;;17.10;56.40;;;;;;6103056;23;20010;-80
2022/04/09 16:30:09;;;;;;;3.47;1.00;;;18.10;53.90;;;;;;6102895;23;20006;-80
2022/04/09 16:32:35;;;;;;;4.47;0.90;;;18.40;54.90;;;;;;6104608;23;20025;-80
2022/04/09 16:35:01;;;;;;;4.07;1.33;;;18.30;53.10;;;;;;6103998;23;20002;-79
2022/04/09 16:37:27;;;;;;;6.05;1.23;;;17.20;54.70;;;;;;6104847;23;20014;-80
2022/04/09 16:39:53;;;;;;;3.50;1.00;;;15.90;56.10;;;;;;6103972;23;20006;-81
2022/04/09 16:42:20;;;;;;;5.28;1.10;;;14.40;59.10;;;;;;6104390;23;20006;-79
2022/04/09 16:44:46;;;;;;;4.13;1.17;;;13.50;60.90;;;;;;6104578;23;20188;-79
2022/04/09 16:47:12;;;;;;;3.50;1.02;;;12.70;61.60;;;;;;6103892;23;20196;-81
2022/04/09 16:49:44;;;;;;;5.53;1.30;;;12.20;63.20;;;;;;6104584;23;20030;-80
2022/04/09 16:52:14;;;;;;;7.40;1.75;;;11.70;64.40;;;;;;6103753;23;20026;-82
2022/04/09 16:54:43;;;;;;;3.20;0.98;;;11.30;64.60;;;;;;6080419;23;20007;-82
2022/04/09 16:57:11;;;;;;;4.85;1.30;;;11.10;65.10;;;;;;6103025;23;20010;-79
2022/04/09 16:59:37;;;;;;;2.97;1.00;;;10.90;66.20;;;;;;6104570;23;20086;-79
2022/04/09 17:02:07;;;;;;;3.85;1.25;;;10.80;66.50;;;;;;6102492;23;20018;-81
2022/04/09 17:04:34;;;;;;;4.38;1.20;;;10.40;65.80;;;;;;6105942;23;20010;-81
2022/04/09 17:07:01;;;;;;;5.30;1.17;;;10.30;66.70;;;;;;6104220;23;20009;-80
2022/04/09 17:09:27;;;;;;;4.15;1.20;;;10.90;65.70;;;;;;6080089;23;19998;-80
2022/04/09 17:11:54;;;;;;;4.72;1.10;;;11.50;64.00;;;;;;6103506;23;20052;-80
2022/04/09 17:14:20;;;;;;;4.05;1.02;;;11.60;64.10;;;;;;6105109;23;20025;-80
2022/04/09 17:16:46;;;;;;;4.10;1.08;;;11.40;64.10;;;;;;6080293;23;20015;-79
2022/04/09 17:19:12;;;;;;;4.60;1.42;;;11.10;64.60;;;;;;6105215;23;19998;-80
2022/04/09 17:32:58;;;;;;;6.13;1.20;;;10.30;66.10;;;;;;6126794;23;20015;-80
2022/04/09 17:35:24;;;;;;;3.67;1.13;;;10.10;66.70;;;;;;6080265;23;20002;-79
2022/04/09 17:37:50;;;;;;;3.50;1.00;;;10.10;68.00;;;;;;6082376;23;20061;-81
2022/04/09 17:40:17;;;;;;;4.30;1.27;;;10.00;68.70;;;;;;6082056;23;20066;-80
2022/04/09 17:42:45;;;;;;;3.88;0.90;;;9.90;68.50;;;;;;6080474;23;20034;-80
2022/04/09 17:45:12;;;;;;;3.90;1.20;;;9.70;68.00;;;;;;6132822;23;20292;-80
2022/04/09 17:47:39;;;;;;;4.35;1.10;;;9.40;69.60;;;;;;6109764;23;19998;-79
2022/04/09 17:50:05;;;;;;;4.63;1.45;;;9.20;70.00;;;;;;6109508;23;20053;-80
2022/04/09 17:52:37;;;;;;;2.60;0.90;;;9.00;71.00;;;;;;6133255;23;20014;-80
2022/04/09 17:55:04;;;;;;;6.47;1.50;;;8.80;71.40;;;;;;6109330;23;20006;-82
2022/04/09 17:57:31;;;;;;;3.90;1.33;;;8.70;72.20;;;;;;6134149;23;20009;-80
2022/04/09 17:59:57;;;;;;;8.27;1.73;;;8.70;73.60;;;;;;6133816;23;19998;-82
2022/04/09 18:02:23;;;;;;;4.38;1.40;;;8.60;73.20;;;;;;6090031;23;20014;-79
2022/04/09 18:04:50;;;;;;;4.13;1.08;;;8.50;74.20;;;;;;6135503;23;20049;-79
2022/04/09 18:07:16;;;;;;;4.63;1.20;;;8.40;74.50;;;;;;6111421;23;20353;-80
2022/04/09 18:09:42;;;;;;;6.38;1.48;;;8.30;74.60;;;;;;6112470;23;20002;-82
2022/04/09 18:12:11;;;;;;;3.53;1.23;;;8.30;75.20;;;;;;6110579;23;20098;-79
2022/04/09 18:14:37;;;;;;;7.13;1.65;;;8.20;75.60;;;;;;6133993;23;20017;-79
2022/04/09 18:17:08;;;;;;;5.07;1.63;;;8.20;76.10;;;;;;6134948;23;20022;-81
2022/04/09 18:19:38;;;;;;;4.57;1.60;;;8.00;76.70;;;;;;6136693;23;20049;-79
2022/04/09 18:22:07;;;;;;;3.90;1.80;;;7.90;77.80;;;;;;6134601;23;20006;-79
2022/04/09 18:24:34;;;;;;;4.18;1.52;;;7.70;79.40;;;;;;6135502;23;20027;-79
2022/04/09 18:27:11;;;;;;;4.78;1.70;;;7.50;79.20;;;;;;6134695;23;20249;-79
2022/04/09 18:29:40;;;;;;;6.57;2.17;;;7.40;79.90;;;;;;6111113;23;20002;-80
2022/04/09 18:43:09;;;;;;;5.88;2.10;;;7.00;82.40;;;;;;6126127;23;20028;-79
2022/04/09 18:45:35;;;;;;;6.82;2.20;;;6.90;83.50;;;;;;6194860;23;20005;-79
2022/04/09 19:36:20;;;;;;;5.13;1.92;;;6.30;86.10;;;;;;6140496;23;20039;-79
2022/04/09 19:42:20;;;;;;;6.18;2.22;;;6.10;87.50;;;;;;6163617;23;20101;-81
2022/04/09 19:44:46;;;;;;;5.93;2.35;;;6.10;88.10;;;;;;6165411;23;20001;-80
2022/04/09 19:47:14;;;;;;;5.47;2.13;;;6.10;88.40;;;;;;6140124;23;20072;-80
2022/04/09 19:49:46;;;;;;;6.03;2.05;;;6.20;89.60;;;;;;6166956;23;20005;-79
2022/04/09 19:52:15;;;;;;;3.92;2.05;;;6.10;89.90;;;;;;6142627;23;20005;-82
2022/04/09 19:54:43;;;;;;;7.45;2.47;;;6.20;90.20;;;;;;6142740;23;20009;-81
2022/04/09 20:01:03;;;;;;;4.93;2.38;;;6.20;90.70;;;;;;6175323;23;20016;-82
2022/04/09 20:03:30;;;;;;;4.95;2.05;;;6.20;91.00;;;;;;6171668;23;20181;-80
2022/04/09 20:06:00;;;;;;;7.82;3.13;;;6.20;91.10;;;;;;6170757;23;20012;-80
2022/04/09 20:08:26;;;;;;;5.75;2.80;;;6.20;91.40;;;;;;6195504;23;20005;-80
2022/04/09 20:10:52;;;;;;;7.78;1.98;;;6.10;91.70;;;;;;6195274;23;20007;-80
2022/04/09 20:13:19;;;;;;;6.75;2.25;;;6.10;92.00;;;;;;6196838;23;20005;-79
2022/04/09 20:15:45;;;;;;;4.80;2.45;;;6.10;92.20;;;;;;6196264;23;20065;-80
2022/04/09 20:18:15;;;;;;;6.22;2.20;;;6.10;92.30;;;;;;6195872;23;20001;-81
2022/04/09 20:20:41;;;;;;;7.05;2.33;;;6.10;92.50;;;;;;6197162;23;20005;-80
2022/04/09 20:23:11;;;;;;;7.10;2.00;;;6.10;92.50;;;;;;6195616;23;20005;-80
2022/04/09 20:25:38;;;;;;;6.38;1.95;;;6.10;92.40;;;;;;6197677;23;20008;-81
2022/04/09 20:28:05;;;;;;;3.80;1.70;;;6.20;92.50;;;;;;6196938;23;20001;-79
2022/04/09 20:30:32;;;;;;;3.70;1.65;;;6.10;92.20;;;;;;6170584;23;20005;-83
2022/04/09 20:32:57;;;;;;;7.60;1.60;;;6.00;92.30;;;;;;6194918;23;20004;-79
2022/04/09 20:35:24;;;;;;;5.30;1.75;;;6.00;92.00;;;;;;6196655;23;20005;-81
2022/04/09 20:37:51;;;;;;;4.03;1.60;;;5.90;92.00;;;;;;6172400;23;20005;-80
2022/04/09 20:40:17;;;;;;;5.53;1.77;;;5.90;91.90;;;;;;6146864;23;20218;-80
2022/04/09 20:42:45;;;;;;;5.60;1.50;;;5.90;92.00;;;;;;6171560;23;20005;-81
2022/04/09 20:45:11;;;;;;;4.22;1.50;;;5.80;92.30;;;;;;6193342;23;20008;-81
2022/04/09 20:47:37;;;;;;;6.07;1.67;;;5.70;92.60;;;;;;6196153;23;19997;-79
2022/04/09 20:50:03;;;;;;;3.25;1.38;;;5.70;92.90;;;;;;6195111;23;20020;-80
2022/04/09 20:52:29;;;;;;;2.72;1.30;;;5.50;93.30;;;;;;6196378;23;20299;-81
2022/04/09 20:54:55;;;;;;;4.15;1.55;;;5.40;94.10;;;;;;6193705;23;20175;-79
2022/04/09 20:57:23;;;;;;;3.23;1.00;;;5.30;94.30;;;;;;6196829;23;20020;-80
2022/04/09 20:59:49;;;;;;;4.30;1.40;;;5.20;94.90;;;;;;6196669;23;20412;-81
2022/04/09 21:02:14;;;;;;;4.88;1.20;;;5.10;95.30;;;;;;6194102;23;20012;-81
2022/04/09 21:04:41;;;;;;;4.53;1.25;;;5.00;95.90;;;;;;6195510;23;19992;-80
2022/04/09 21:07:08;;;;;;;3.95;1.27;;;4.90;96.50;;;;;;6169055;23;20012;-79
2022/04/09 21:09:35;;;;;;;2.63;1.20;;;5.00;96.40;;;;;;6195121;23;20017;-80
2022/04/09 21:12:01;;;;;;;3.15;1.20;;;4.90;96.80;;;;;;6194362;23;20064;-77
2022/04/09 21:14:27;;;;;;;2.65;1.05;;;4.90;97.20;;;;;;6169693;23;20005;-78
2022/04/09 21:16:53;;;;;;;3.38;1.30;;;4.80;97.50;;;;;;6194733;23;20016;-79
2022/04/09 21:19:19;;;;;;;4.65;1.35;;;4.80;97.90;;;;;;6169154;23;20005;-81
2022/04/09 21:21:46;;;;;;;3.58;1.50;;;4.80;98.20;;;;;;6194518;23;20023;-81
2022/04/09 21:24:12;;;;;;;5.70;1.48;;;4.80;98.50;;;;;;6168319;23;20005;-81
2022/04/09 21:26:40;;;;;;;4.70;1.70;;;4.70;98.90;;;;;;6194126;23;20188;-80
2022/04/09 21:29:09;;;;;;;7.47;1.60;;;4.70;99.30;;;;;;6144915;23;20001;-79
2022/04/09 21:31:34;;;;;;;4.13;1.98;;;4.70;99.50;;;;;;6194752;23;20080;-80
2022/04/09 21:34:00;;;;;;;5.78;1.67;;;4.70;99.70;;;;;;6193057;23;20295;-79
2022/04/09 21:36:27;;;;;;;3.45;1.63;;;4.70;99.70;;;;;;6193618;23;20020;-82
2022/04/09 21:38:54;;;;;;;4.35;1.70;;;4.70;99.60;;;;;;6193492;23;20005;-79
2022/04/09 21:41:20;;;;;;;6.32;1.70;;;4.80;99.60;;;;;;6168936;23;19989;-81
2022/04/09 21:47:35;;;;;;;5.15;2.13;;;4.80;99.40;;;;;;6195249;23;20035;-80
2022/04/09 21:50:03;;;;;;;3.58;1.80;;;4.90;99.70;;;;;;6196279;23;20005;-80
2022/04/09 21:52:29;;;;;;;3.40;1.75;;;4.90;99.50;;;;;;6197935;23;20077;-79
2022/04/09 21:54:55;;;;;;;5.03;1.77;;;4.90;98.90;;;;;;6172693;23;20003;-81
2022/04/09 21:57:22;;;;;;;3.95;1.50;;;4.90;98.80;;;;;;6197455;23;20001;-80
2022/04/09 21:59:48;;;;;;;5.97;1.58;;;4.90;98.50;;;;;;6199727;23;20001;-81
2022/04/09 22:02:13;;;;;;;5.75;1.80;;;4.90;98.70;;;;;;6169436;23;20024;-78
2022/04/09 22:04:40;;;;;;;4.93;1.70;;;4.90;98.80;;;;;;6197115;23;20012;-77
2022/04/09 22:07:07;;;;;;;6.18;1.80;;;4.80;99.20;;;;;;6195422;23;20012;-82
2022/04/09 22:09:33;;;;;;;6.13;1.83;;;4.80;99.30;;;;;;6168755;23;20005;-81
2022/04/09 22:11:59;;;;;;;4.05;1.75;;;4.90;99.40;;;;;;6194814;23;20060;-81
2022/04/09 22:14:25;;;;;;;3.75;1.80;;;4.90;99.20;;;;;;6194211;23;20301;-79
2022/04/09 22:16:52;;;;;;;4.60;1.75;;;4.80;99.20;;;;;;6194796;23;20019;-80
2022/04/09 22:19:18;;;;;;;5.63;1.73;;;4.80;99.30;;;;;;6195041;23;19997;-81
2022/04/09 22:21:44;;;;;;;5.18;2.05;;;4.70;99.70;;;;;;6198712;23;20008;-81
2022/04/09 22:24:13;;;;;;;4.20;1.58;;;4.60;99.80;;;;;;6198749;23;20004;-80
2022/04/09 22:26:42;;;;;;;3.20;1.55;;;4.60;99.90;;;;;;6197344;23;20029;-78
2022/04/09 22:29:08;;;;;;;6.80;2.15;;;4.50;99.90;;;;;;6171157;23;20016;-81
2022/04/09 22:31:35;;;;;;;4.38;1.92;;;4.50;99.90;;;;;;6170521;23;20202;-78
2022/04/09 22:34:01;;;;;;;5.93;1.98;;;4.40;99.90;;;;;;6197020;23;20012;-81
2022/04/09 22:36:26;;;;;;;3.30;1.67;;;4.40;99.90;;;;;;6172161;23;20009;-80
2022/04/09 22:38:52;;;;;;;3.72;1.73;;;4.40;99.90;;;;;;6174081;23;20337;-78
2022/04/09 22:41:18;;;;;;;7.10;2.03;;;4.40;99.90;;;;;;6172102;23;20290;-79
2022/04/09 22:43:44;;;;;;;5.53;2.10;;;4.40;99.90;;;;;;6198280;23;20207;-81
2022/04/09 22:46:10;;;;;;;5.45;1.92;;;4.40;99.90;;;;;;6170676;23;20024;-81
2022/04/09 22:48:36;;;;;;;5.00;1.92;;;4.50;99.90;;;;;;6197614;23;20009;-80
2022/04/09 22:51:03;;;;;;;5.20;2.20;;;4.40;99.90;;;;;;6196612;23;20012;-80
2022/04/09 22:53:29;;;;;;;9.52;1.90;;;4.40;99.90;;;;;;6196307;23;20287;-80
2022/04/09 22:55:56;;;;;;;5.72;2.17;;;4.40;99.90;;;;;;6165952;23;20006;-79
2022/04/09 22:58:22;;;;;;;4.72;1.92;;;4.40;99.90;;;;;;6165453;23;19989;-81
2022/04/09 23:00:48;;;;;;;4.55;2.00;;;4.40;99.90;;;;;;6163544;23;20009;-78
2022/04/09 23:03:16;;;;;;;6.10;2.33;;;4.30;99.90;;;;;;6139770;23;19993;-81
2022/04/09 23:05:42;;;;;;;6.30;2.45;;;4.30;99.90;;;;;;6114900;23;20065;-81
2022/04/09 23:08:08;;;;;;;6.70;2.13;;;4.30;99.90;;;;;;6139739;23;20005;-80
2022/04/09 23:10:33;;;;;;;6.72;2.50;;;4.30;99.90;;;;;;6164821;23;20245;-79
2022/04/09 23:13:02;;;;;;;4.22;2.13;;;4.20;99.90;;;;;;6140973;23;20002;-79
2022/04/09 23:15:28;;;;;;;;;;;4.10;99.90;;;;;;6139162;23;20006;-78
2022/04/09 23:17:54;;;;;;;6.55;2.38;;;4.00;99.90;;;;;;6164413;23;19943;-79
2022/04/09 23:20:20;;;;;;;4.20;2.25;;;4.10;99.90;;;;;;6138724;23;20006;-77
2022/04/09 23:22:46;;;;;;;5.78;2.50;;;4.20;99.90;;;;;;6163941;23;20060;-78
2022/04/09 23:25:12;;;;;;;7.15;2.47;;;4.20;99.90;;;;;;6163894;23;20013;-79
2022/04/09 23:27:38;;;;;;;7.07;2.70;;;4.30;99.90;;;;;;6139137;23;20016;-80
2022/04/09 23:30:04;;;;;;;6.78;2.65;;;4.30;99.90;;;;;;6193281;23;20077;-78
2022/04/09 23:32:30;;;;;;;7.85;2.70;;;4.20;99.90;;;;;;6193279;23;20199;-79
2022/04/09 23:34:56;;;;;;;7.13;3.05;;;4.20;99.90;;;;;;6195427;23;20029;-79
2022/04/09 23:37:23;;;;;;;6.25;2.83;;;4.20;99.90;;;;;;6192901;23;20008;-78
2022/04/09 23:39:48;;;;;;;8.63;2.60;;;4.10;99.90;;;;;;6195589;23;20194;-79
2022/04/09 23:42:14;;;;;;;6.10;3.00;;;4.10;99.90;;;;;;6168414;23;20069;-79
2022/04/09 23:44:40;;;;;;;8.07;2.72;;;4.10;99.90;;;;;;6195260;23;20002;-79
2022/04/09 23:47:06;;;;;;;5.78;2.40;;;4.10;99.90;;;;;;6197959;23;20009;-78
2022/04/09 23:49:33;;;;;;;6.97;2.30;;;4.10;99.90;;;;;;6195072;23;20325;-78
2022/04/09 23:51:58;;;;;;;5.90;2.55;;;4.10;99.90;;;;;;6195342;23;20067;-79
2022/04/09 23:54:24;;;;;;;4.75;2.42;;;4.10;99.90;;;;;;6193616;23;20186;-79
2022/04/09 23:56:50;;;;;;;7.05;2.55;;;4.10;99.90;;;;;;6169244;23;20012;-80
2022/04/09 23:59:16;;;;;;;6.53;2.53;;;4.20;99.90;;;;;;6194495;23;20156;-79
